sensor_id;sensor_type;location;lat;lon;timestamp;P1;durP1;ratioP1;P2;durP2;ratioP2
45328;SDS011;31063;48.356;10.896;2022-07-29T00:01:32;7.30;;;5.53;;
45328;SDS011;31063;48.356;10.896;2022-07-29T00:03:58;8.13;;;6.93;;
45328;SDS011;31063;48.356;10.896;2022-07-29T00:06:24;10.43;;;6.10;;
45328;SDS011;31063;48.356;10.896;2022-07-29T00:08:49;8.27;;;5.90;;
45328;SDS011;31063;48.356;10.896;2022-07-29T00:11:15;5.97;;;5.43;;
45328;SDS011;31063;48.356;10.896;2022-07-29T00:13:41;10.50;;;6.33;;
45328;SDS011;31063;48.356;10.896;2022-07-29T00:16:06;8.63;;;7.00;;
45328;SDS011;31063;48.356;10.896;2022-07-29T00:18:32;9.47;;;6.73;;
45328;SDS011;31063;48.356;10.896;2022-07-29T00:20:58;10.67;;;8.57;;
45328;SDS011;31063;48.356;10.896;2022-07-29T00:23:23;8.73;;;6.60;;
45328;SDS011;31063;48.356;10.896;2022-07-29T00:25:49;8.27;;;6.27;;
45328;SDS011;31063;48.356;10.896;2022-07-29T00:28:14;11.83;;;7.63;;
45328;SDS011;31063;48.356;10.896;2022-07-29T00:30:40;6.83;;;6.10;;
45328;SDS011;31063;48.356;10.896;2022-07-29T00:33:07;8.93;;;6.82;;
45328;SDS011;31063;48.356;10.896;2022-07-29T00:35:33;7.72;;;6.93;;
45328;SDS011;31063;48.356;10.896;2022-07-29T00:38:08;7.15;;;6.35;;
45328;SDS011;31063;48.356;10.896;2022-07-29T00:40:34;7.88;;;6.50;;
45328;SDS011;31063;48.356;10.896;2022-07-29T00:43:00;9.90;;;6.47;;
45328;SDS011;31063;48.356;10.896;2022-07-29T00:47:52;8.65;;;6.78;;
45328;SDS011;31063;48.356;10.896;2022-07-29T00:50:18;6.70;;;6.10;;
45328;SDS011;31063;48.356;10.896;2022-07-29T00:52:43;7.05;;;6.35;;
45328;SDS011;31063;48.356;10.896;2022-07-29T00:55:13;7.15;;;6.45;;
45328;SDS011;31063;48.356;10.896;2022-07-29T00:57:41;8.57;;;6.90;;
45328;SDS011;31063;48.356;10.896;2022-07-29T01:00:09;9.73;;;6.93;;
45328;SDS011;31063;48.356;10.896;2022-07-29T01:02:37;8.80;;;7.93;;
45328;SDS011;31063;48.356;10.896;2022-07-29T01:05:03;9.77;;;8.33;;
45328;SDS011;31063;48.356;10.896;2022-07-29T01:07:30;10.30;;;9.23;;
45328;SDS011;31063;48.356;10.896;2022-07-29T01:09:57;13.43;;;10.05;;
45328;SDS011;31063;48.356;10.896;2022-07-29T01:12:27;10.52;;;8.95;;
45328;SDS011;31063;48.356;10.896;2022-07-29T01:14:56;12.80;;;9.70;;
45328;SDS011;31063;48.356;10.896;2022-07-29T01:31:19;16.05;;;12.75;;
45328;SDS011;31063;48.356;10.896;2022-07-29T01:33:50;15.68;;;12.25;;
45328;SDS011;31063;48.356;10.896;2022-07-29T01:36:24;18.08;;;13.10;;
45328;SDS011;31063;48.356;10.896;2022-07-29T01:39:06;14.10;;;11.23;;
45328;SDS011;31063;48.356;10.896;2022-07-29T01:42:05;13.80;;;11.57;;
45328;SDS011;31063;48.356;10.896;2022-07-29T01:44:52;16.45;;;11.95;;
45328;SDS011;31063;48.356;10.896;2022-07-29T01:47:20;14.48;;;10.93;;
45328;SDS011;31063;48.356;10.896;2022-07-29T01:49:52;13.32;;;10.98;;
45328;SDS011;31063;48.356;10.896;2022-07-29T01:53:07;14.25;;;11.55;;
45328;SDS011;31063;48.356;10.896;2022-07-29T01:55:11;13.93;;;11.23;;
45328;SDS011;31063;48.356;10.896;2022-07-29T01:57:40;16.77;;;12.00;;
45328;SDS011;31063;48.356;10.896;2022-07-29T02:00:09;19.40;;;13.77;;
45328;SDS011;31063;48.356;10.896;2022-07-29T02:02:37;17.55;;;13.45;;
45328;SDS011;31063;48.356;10.896;2022-07-29T02:05:05;16.58;;;13.35;;
45328;SDS011;31063;48.356;10.896;2022-07-29T02:07:35;21.77;;;14.43;;
45328;SDS011;31063;48.356;10.896;2022-07-29T02:10:03;16.95;;;13.38;;
45328;SDS011;31063;48.356;10.896;2022-07-29T02:12:31;13.82;;;12.32;;
45328;SDS011;31063;48.356;10.896;2022-07-29T02:14:58;13.45;;;11.50;;
45328;SDS011;31063;48.356;10.896;2022-07-29T02:17:27;12.77;;;10.68;;
45328;SDS011;31063;48.356;10.896;2022-07-29T02:20:00;15.13;;;11.50;;
45328;SDS011;31063;48.356;10.896;2022-07-29T02:22:28;16.63;;;11.90;;
45328;SDS011;31063;48.356;10.896;2022-07-29T02:24:56;14.75;;;9.85;;
45328;SDS011;31063;48.356;10.896;2022-07-29T02:27:23;14.90;;;10.23;;
45328;SDS011;31063;48.356;10.896;2022-07-29T02:29:52;12.23;;;10.38;;
45328;SDS011;31063;48.356;10.896;2022-07-29T02:32:19;13.07;;;9.90;;
45328;SDS011;31063;48.356;10.896;2022-07-29T02:34:47;14.55;;;9.90;;
45328;SDS011;31063;48.356;10.896;2022-07-29T02:37:15;13.82;;;9.20;;
45328;SDS011;31063;48.356;10.896;2022-07-29T02:39:43;13.40;;;9.10;;
45328;SDS011;31063;48.356;10.896;2022-07-29T02:42:10;11.32;;;8.60;;
45328;SDS011;31063;48.356;10.896;2022-07-29T02:44:38;17.27;;;9.45;;
45328;SDS011;31063;48.356;10.896;2022-07-29T02:47:10;12.52;;;8.43;;
45328;SDS011;31063;48.356;10.896;2022-07-29T02:52:40;12.48;;;8.05;;
45328;SDS011;31063;48.356;10.896;2022-07-29T02:58:13;12.27;;;7.60;;
45328;SDS011;31063;48.356;10.896;2022-07-29T03:00:47;8.27;;;6.65;;
45328;SDS011;31063;48.356;10.896;2022-07-29T03:03:16;15.93;;;7.28;;
45328;SDS011;31063;48.356;10.896;2022-07-29T03:05:43;7.65;;;6.35;;
45328;SDS011;31063;48.356;10.896;2022-07-29T03:08:10;10.60;;;7.10;;
45328;SDS011;31063;48.356;10.896;2022-07-29T03:10:39;11.07;;;6.72;;
45328;SDS011;31063;48.356;10.896;2022-07-29T03:13:07;11.77;;;6.05;;
45328;SDS011;31063;48.356;10.896;2022-07-29T03:15:34;12.35;;;7.43;;
45328;SDS011;31063;48.356;10.896;2022-07-29T03:18:00;7.30;;;6.00;;
45328;SDS011;31063;48.356;10.896;2022-07-29T03:20:27;7.88;;;6.30;;
45328;SDS011;31063;48.356;10.896;2022-07-29T03:22:52;10.40;;;6.60;;
45328;SDS011;31063;48.356;10.896;2022-07-29T03:25:18;10.10;;;6.47;;
45328;SDS011;31063;48.356;10.896;2022-07-29T03:27:45;7.25;;;6.55;;
45328;SDS011;31063;48.356;10.896;2022-07-29T03:30:12;8.32;;;6.05;;
45328;SDS011;31063;48.356;10.896;2022-07-29T03:32:39;11.55;;;6.50;;
45328;SDS011;31063;48.356;10.896;2022-07-29T03:35:06;8.95;;;6.35;;
45328;SDS011;31063;48.356;10.896;2022-07-29T03:37:32;7.95;;;6.35;;
45328;SDS011;31063;48.356;10.896;2022-07-29T03:39:58;10.25;;;6.97;;
45328;SDS011;31063;48.356;10.896;2022-07-29T03:42:27;9.88;;;6.57;;
45328;SDS011;31063;48.356;10.896;2022-07-29T03:44:55;8.98;;;7.07;;
45328;SDS011;31063;48.356;10.896;2022-07-29T03:47:24;10.00;;;7.70;;
45328;SDS011;31063;48.356;10.896;2022-07-29T03:49:55;11.10;;;7.10;;
45328;SDS011;31063;48.356;10.896;2022-07-29T03:52:24;8.32;;;6.97;;
45328;SDS011;31063;48.356;10.896;2022-07-29T03:54:50;16.27;;;7.25;;
45328;SDS011;31063;48.356;10.896;2022-07-29T03:57:17;12.07;;;7.45;;
45328;SDS011;31063;48.356;10.896;2022-07-29T03:59:45;8.40;;;6.15;;
45328;SDS011;31063;48.356;10.896;2022-07-29T04:04:37;9.70;;;7.20;;
45328;SDS011;31063;48.356;10.896;2022-07-29T04:07:03;9.82;;;6.93;;
45328;SDS011;31063;48.356;10.896;2022-07-29T04:09:29;8.57;;;6.80;;
45328;SDS011;31063;48.356;10.896;2022-07-29T04:11:55;9.03;;;6.63;;
45328;SDS011;31063;48.356;10.896;2022-07-29T04:14:20;10.83;;;6.20;;
45328;SDS011;31063;48.356;10.896;2022-07-29T04:16:46;6.83;;;4.87;;
45328;SDS011;31063;48.356;10.896;2022-07-29T04:19:12;5.57;;;4.90;;
45328;SDS011;31063;48.356;10.896;2022-07-29T04:21:38;7.73;;;5.47;;
45328;SDS011;31063;48.356;10.896;2022-07-29T04:24:05;6.70;;;4.78;;
45328;SDS011;31063;48.356;10.896;2022-07-29T04:26:31;7.85;;;4.75;;
45328;SDS011;31063;48.356;10.896;2022-07-29T04:28:57;8.07;;;5.32;;
45328;SDS011;31063;48.356;10.896;2022-07-29T04:31:23;6.10;;;4.13;;
45328;SDS011;31063;48.356;10.896;2022-07-29T04:33:48;10.93;;;4.47;;
45328;SDS011;31063;48.356;10.896;2022-07-29T04:36:14;6.77;;;4.50;;
45328;SDS011;31063;48.356;10.896;2022-07-29T04:38:40;8.82;;;5.78;;
45328;SDS011;31063;48.356;10.896;2022-07-29T04:41:05;7.37;;;4.70;;
45328;SDS011;31063;48.356;10.896;2022-07-29T04:43:32;7.47;;;5.13;;
45328;SDS011;31063;48.356;10.896;2022-07-29T04:48:24;7.95;;;5.80;;
45328;SDS011;31063;48.356;10.896;2022-07-29T04:50:50;5.10;;;4.63;;
45328;SDS011;31063;48.356;10.896;2022-07-29T04:53:16;8.00;;;4.57;;
45328;SDS011;31063;48.356;10.896;2022-07-29T04:55:41;8.10;;;4.77;;
45328;SDS011;31063;48.356;10.896;2022-07-29T04:58:07;7.87;;;4.90;;
45328;SDS011;31063;48.356;10.896;2022-07-29T05:00:33;6.32;;;4.00;;
45328;SDS011;31063;48.356;10.896;2022-07-29T05:02:59;8.95;;;4.88;;
45328;SDS011;31063;48.356;10.896;2022-07-29T05:05:24;6.83;;;4.30;;
45328;SDS011;31063;48.356;10.896;2022-07-29T05:07:50;8.27;;;4.80;;
45328;SDS011;31063;48.356;10.896;2022-07-29T05:10:16;6.70;;;3.70;;
45328;SDS011;31063;48.356;10.896;2022-07-29T05:12:41;5.80;;;4.60;;
45328;SDS011;31063;48.356;10.896;2022-07-29T05:15:07;6.47;;;4.77;;
45328;SDS011;31063;48.356;10.896;2022-07-29T05:17:33;12.40;;;5.50;;
45328;SDS011;31063;48.356;10.896;2022-07-29T05:19:59;6.63;;;4.50;;
45328;SDS011;31063;48.356;10.896;2022-07-29T05:22:25;6.30;;;4.07;;
45328;SDS011;31063;48.356;10.896;2022-07-29T05:24:51;9.03;;;4.67;;
45328;SDS011;31063;48.356;10.896;2022-07-29T05:27:16;8.43;;;4.93;;
45328;SDS011;31063;48.356;10.896;2022-07-29T05:29:42;9.27;;;4.17;;
45328;SDS011;31063;48.356;10.896;2022-07-29T05:32:07;7.30;;;3.67;;
45328;SDS011;31063;48.356;10.896;2022-07-29T05:34:33;7.40;;;4.67;;
45328;SDS011;31063;48.356;10.896;2022-07-29T05:36:59;4.93;;;4.40;;
45328;SDS011;31063;48.356;10.896;2022-07-29T05:39:25;5.18;;;3.97;;
45328;SDS011;31063;48.356;10.896;2022-07-29T05:41:50;3.77;;;3.30;;
45328;SDS011;31063;48.356;10.896;2022-07-29T05:44:17;5.23;;;4.43;;
45328;SDS011;31063;48.356;10.896;2022-07-29T05:49:08;6.03;;;4.32;;
45328;SDS011;31063;48.356;10.896;2022-07-29T05:51:34;6.70;;;3.80;;
45328;SDS011;31063;48.356;10.896;2022-07-29T05:53:59;9.63;;;4.67;;
45328;SDS011;31063;48.356;10.896;2022-07-29T05:56:25;4.73;;;3.90;;
45328;SDS011;31063;48.356;10.896;2022-07-29T05:58:51;4.97;;;4.37;;
45328;SDS011;31063;48.356;10.896;2022-07-29T06:01:17;4.13;;;3.70;;
45328;SDS011;31063;48.356;10.896;2022-07-29T06:03:43;6.40;;;4.90;;
45328;SDS011;31063;48.356;10.896;2022-07-29T06:06:09;9.63;;;5.55;;
45328;SDS011;31063;48.356;10.896;2022-07-29T06:08:35;8.27;;;5.80;;
45328;SDS011;31063;48.356;10.896;2022-07-29T06:11:02;11.15;;;5.93;;
45328;SDS011;31063;48.356;10.896;2022-07-29T06:13:28;10.20;;;6.22;;
45328;SDS011;31063;48.356;10.896;2022-07-29T06:15:54;6.93;;;5.70;;
45328;SDS011;31063;48.356;10.896;2022-07-29T06:18:20;7.97;;;4.82;;
45328;SDS011;31063;48.356;10.896;2022-07-29T06:20:49;7.03;;;5.97;;
45328;SDS011;31063;48.356;10.896;2022-07-29T06:23:15;7.82;;;5.60;;
45328;SDS011;31063;48.356;10.896;2022-07-29T06:25:42;6.25;;;4.97;;
45328;SDS011;31063;48.356;10.896;2022-07-29T06:28:07;7.43;;;5.77;;
45328;SDS011;31063;48.356;10.896;2022-07-29T06:30:33;8.33;;;5.10;;
45328;SDS011;31063;48.356;10.896;2022-07-29T06:32:58;9.67;;;5.43;;
45328;SDS011;31063;48.356;10.896;2022-07-29T06:35:25;8.82;;;5.30;;
45328;SDS011;31063;48.356;10.896;2022-07-29T06:37:50;7.10;;;5.60;;
45328;SDS011;31063;48.356;10.896;2022-07-29T06:40:17;9.05;;;6.10;;
45328;SDS011;31063;48.356;10.896;2022-07-29T06:43:00;11.30;;;6.20;;
45328;SDS011;31063;48.356;10.896;2022-07-29T06:45:26;13.00;;;6.57;;
45328;SDS011;31063;48.356;10.896;2022-07-29T06:50:30;10.95;;;6.10;;
45328;SDS011;31063;48.356;10.896;2022-07-29T06:52:56;6.30;;;5.20;;
45328;SDS011;31063;48.356;10.896;2022-07-29T06:55:22;8.10;;;5.87;;
45328;SDS011;31063;48.356;10.896;2022-07-29T06:57:47;7.37;;;5.60;;
45328;SDS011;31063;48.356;10.896;2022-07-29T07:00:13;7.40;;;4.53;;
45328;SDS011;31063;48.356;10.896;2022-07-29T07:02:39;9.10;;;6.00;;
45328;SDS011;31063;48.356;10.896;2022-07-29T07:05:05;7.47;;;4.67;;
45328;SDS011;31063;48.356;10.896;2022-07-29T07:07:31;6.93;;;4.45;;
45328;SDS011;31063;48.356;10.896;2022-07-29T07:09:57;9.50;;;4.43;;
45328;SDS011;31063;48.356;10.896;2022-07-29T07:12:22;5.97;;;4.20;;
45328;SDS011;31063;48.356;10.896;2022-07-29T07:14:48;10.43;;;5.10;;
45328;SDS011;31063;48.356;10.896;2022-07-29T07:17:13;5.33;;;3.90;;
45328;SDS011;31063;48.356;10.896;2022-07-29T07:19:39;5.53;;;3.90;;
45328;SDS011;31063;48.356;10.896;2022-07-29T07:22:05;5.00;;;4.00;;
45328;SDS011;31063;48.356;10.896;2022-07-29T07:24:30;5.73;;;3.33;;
45328;SDS011;31063;48.356;10.896;2022-07-29T07:26:56;7.47;;;3.65;;
45328;SDS011;31063;48.356;10.896;2022-07-29T07:29:22;7.50;;;3.10;;
45328;SDS011;31063;48.356;10.896;2022-07-29T07:31:47;4.67;;;2.63;;
45328;SDS011;31063;48.356;10.896;2022-07-29T07:34:13;5.43;;;2.60;;
45328;SDS011;31063;48.356;10.896;2022-07-29T07:36:39;5.67;;;2.40;;
45328;SDS011;31063;48.356;10.896;2022-07-29T07:39:04;3.93;;;2.37;;
45328;SDS011;31063;48.356;10.896;2022-07-29T07:41:30;2.97;;;2.10;;
45328;SDS011;31063;48.356;10.896;2022-07-29T07:43:56;6.00;;;2.53;;
45328;SDS011;31063;48.356;10.896;2022-07-29T07:46:21;2.63;;;2.17;;
45328;SDS011;31063;48.356;10.896;2022-07-29T07:48:47;1.97;;;1.70;;
45328;SDS011;31063;48.356;10.896;2022-07-29T07:51:13;2.37;;;2.10;;
45328;SDS011;31063;48.356;10.896;2022-07-29T07:53:38;4.67;;;2.10;;
45328;SDS011;31063;48.356;10.896;2022-07-29T07:56:04;7.10;;;2.43;;
45328;SDS011;31063;48.356;10.896;2022-07-29T07:58:31;3.05;;;1.90;;
45328;SDS011;31063;48.356;10.896;2022-07-29T08:00:57;3.97;;;2.20;;
45328;SDS011;31063;48.356;10.896;2022-07-29T08:03:22;4.23;;;2.10;;
45328;SDS011;31063;48.356;10.896;2022-07-29T08:05:48;9.00;;;2.50;;
45328;SDS011;31063;48.356;10.896;2022-07-29T08:08:15;8.35;;;2.60;;
45328;SDS011;31063;48.356;10.896;2022-07-29T08:10:41;4.50;;;2.50;;
45328;SDS011;31063;48.356;10.896;2022-07-29T08:13:20;7.03;;;2.40;;
45328;SDS011;31063;48.356;10.896;2022-07-29T08:15:47;3.63;;;2.42;;
45328;SDS011;31063;48.356;10.896;2022-07-29T08:18:22;2.60;;;2.22;;
45328;SDS011;31063;48.356;10.896;2022-07-29T08:20:51;4.70;;;2.30;;
45328;SDS011;31063;48.356;10.896;2022-07-29T08:23:17;2.60;;;2.20;;
45328;SDS011;31063;48.356;10.896;2022-07-29T08:25:44;6.32;;;2.35;;
45328;SDS011;31063;48.356;10.896;2022-07-29T08:28:09;3.67;;;2.50;;
45328;SDS011;31063;48.356;10.896;2022-07-29T08:30:35;5.07;;;2.50;;
45328;SDS011;31063;48.356;10.896;2022-07-29T08:33:00;4.30;;;2.57;;
45328;SDS011;31063;48.356;10.896;2022-07-29T08:35:26;3.00;;;2.53;;
45328;SDS011;31063;48.356;10.896;2022-07-29T08:37:53;4.03;;;2.53;;
45328;SDS011;31063;48.356;10.896;2022-07-29T08:40:19;7.03;;;2.40;;
45328;SDS011;31063;48.356;10.896;2022-07-29T08:45:11;2.80;;;2.33;;
45328;SDS011;31063;48.356;10.896;2022-07-29T08:47:38;3.08;;;2.42;;
45328;SDS011;31063;48.356;10.896;2022-07-29T08:50:05;2.72;;;2.45;;
45328;SDS011;31063;48.356;10.896;2022-07-29T08:52:41;3.10;;;2.53;;
45328;SDS011;31063;48.356;10.896;2022-07-29T08:55:07;5.40;;;2.55;;
45328;SDS011;31063;48.356;10.896;2022-07-29T08:57:34;2.88;;;2.50;;
45328;SDS011;31063;48.356;10.896;2022-07-29T09:02:28;4.22;;;2.65;;
45328;SDS011;31063;48.356;10.896;2022-07-29T09:04:58;3.60;;;3.25;;
45328;SDS011;31063;48.356;10.896;2022-07-29T09:07:25;3.00;;;2.70;;
45328;SDS011;31063;48.356;10.896;2022-07-29T09:09:50;3.83;;;2.87;;
45328;SDS011;31063;48.356;10.896;2022-07-29T09:12:16;4.35;;;2.92;;
45328;SDS011;31063;48.356;10.896;2022-07-29T09:14:42;6.35;;;2.60;;
45328;SDS011;31063;48.356;10.896;2022-07-29T09:17:07;6.23;;;3.20;;
45328;SDS011;31063;48.356;10.896;2022-07-29T09:19:34;3.05;;;2.60;;
45328;SDS011;31063;48.356;10.896;2022-07-29T09:22:03;5.68;;;3.22;;
45328;SDS011;31063;48.356;10.896;2022-07-29T09:27:02;5.07;;;2.85;;
45328;SDS011;31063;48.356;10.896;2022-07-29T09:29:34;6.07;;;2.70;;
45328;SDS011;31063;48.356;10.896;2022-07-29T09:32:00;3.25;;;2.53;;
45328;SDS011;31063;48.356;10.896;2022-07-29T09:34:28;5.35;;;2.55;;
45328;SDS011;31063;48.356;10.896;2022-07-29T09:36:56;3.35;;;2.70;;
45328;SDS011;31063;48.356;10.896;2022-07-29T09:39:36;3.22;;;2.80;;
45328;SDS011;31063;48.356;10.896;2022-07-29T09:42:09;5.50;;;3.08;;
45328;SDS011;31063;48.356;10.896;2022-07-29T09:44:42;5.00;;;3.08;;
45328;SDS011;31063;48.356;10.896;2022-07-29T09:47:09;6.55;;;2.70;;
45328;SDS011;31063;48.356;10.896;2022-07-29T09:49:36;12.07;;;4.88;;
45328;SDS011;31063;48.356;10.896;2022-07-29T09:52:26;3.78;;;3.20;;
45328;SDS011;31063;48.356;10.896;2022-07-29T09:54:52;4.30;;;2.88;;
45328;SDS011;31063;48.356;10.896;2022-07-29T09:57:25;3.72;;;2.90;;
45328;SDS011;31063;48.356;10.896;2022-07-29T10:02:28;3.80;;;2.72;;
45328;SDS011;31063;48.356;10.896;2022-07-29T10:04:59;5.28;;;3.13;;
45328;SDS011;31063;48.356;10.896;2022-07-29T10:07:26;4.22;;;2.70;;
45328;SDS011;31063;48.356;10.896;2022-07-29T10:09:54;3.45;;;2.70;;
45328;SDS011;31063;48.356;10.896;2022-07-29T10:12:22;7.95;;;3.20;;
45328;SDS011;31063;48.356;10.896;2022-07-29T10:14:48;6.07;;;2.95;;
45328;SDS011;31063;48.356;10.896;2022-07-29T10:17:14;4.65;;;2.67;;
45328;SDS011;31063;48.356;10.896;2022-07-29T10:19:41;4.07;;;2.90;;
45328;SDS011;31063;48.356;10.896;2022-07-29T10:22:08;4.75;;;2.33;;
45328;SDS011;31063;48.356;10.896;2022-07-29T10:24:35;6.93;;;2.60;;
45328;SDS011;31063;48.356;10.896;2022-07-29T10:27:03;3.00;;;2.60;;
45328;SDS011;31063;48.356;10.896;2022-07-29T10:29:30;3.90;;;2.67;;
45328;SDS011;31063;48.356;10.896;2022-07-29T10:40:18;4.45;;;2.50;;
45328;SDS011;31063;48.356;10.896;2022-07-29T10:43:16;6.07;;;2.60;;
45328;SDS011;31063;48.356;10.896;2022-07-29T10:45:46;4.13;;;2.75;;
45328;SDS011;31063;48.356;10.896;2022-07-29T10:48:13;4.35;;;2.95;;
45328;SDS011;31063;48.356;10.896;2022-07-29T10:50:55;4.10;;;2.80;;
45328;SDS011;31063;48.356;10.896;2022-07-29T10:56:31;4.45;;;2.90;;
45328;SDS011;31063;48.356;10.896;2022-07-29T11:01:45;3.00;;;2.70;;
45328;SDS011;31063;48.356;10.896;2022-07-29T11:04:11;4.00;;;3.22;;
45328;SDS011;31063;48.356;10.896;2022-07-29T11:09:22;4.05;;;2.85;;
45328;SDS011;31063;48.356;10.896;2022-07-29T11:11:47;4.05;;;3.28;;
45328;SDS011;31063;48.356;10.896;2022-07-29T11:14:13;3.85;;;2.72;;
45328;SDS011;31063;48.356;10.896;2022-07-29T11:19:27;3.33;;;2.85;;
45328;SDS011;31063;48.356;10.896;2022-07-29T11:21:52;4.25;;;2.90;;
45328;SDS011;31063;48.356;10.896;2022-07-29T11:24:21;5.15;;;3.33;;
45328;SDS011;31063;48.356;10.896;2022-07-29T11:29:57;5.22;;;2.53;;
45328;SDS011;31063;48.356;10.896;2022-07-29T11:32:28;3.92;;;2.90;;
45328;SDS011;31063;48.356;10.896;2022-07-29T11:35:16;6.50;;;2.90;;
45328;SDS011;31063;48.356;10.896;2022-07-29T11:37:47;3.08;;;2.70;;
45328;SDS011;31063;48.356;10.896;2022-07-29T11:43:51;3.58;;;2.15;;
45328;SDS011;31063;48.356;10.896;2022-07-29T11:49:21;3.38;;;2.50;;
45328;SDS011;31063;48.356;10.896;2022-07-29T11:51:54;4.97;;;2.65;;
45328;SDS011;31063;48.356;10.896;2022-07-29T11:54:23;3.78;;;2.45;;
45328;SDS011;31063;48.356;10.896;2022-07-29T11:56:57;6.53;;;2.35;;
45328;SDS011;31063;48.356;10.896;2022-07-29T11:59:24;5.55;;;2.40;;
45328;SDS011;31063;48.356;10.896;2022-07-29T12:01:53;4.60;;;2.25;;
45328;SDS011;31063;48.356;10.896;2022-07-29T12:04:22;3.72;;;2.33;;
45328;SDS011;31063;48.356;10.896;2022-07-29T12:06:52;5.70;;;2.20;;
45328;SDS011;31063;48.356;10.896;2022-07-29T12:09:19;3.58;;;2.30;;
45328;SDS011;31063;48.356;10.896;2022-07-29T12:14:27;6.28;;;2.55;;
45328;SDS011;31063;48.356;10.896;2022-07-29T12:16:54;6.65;;;2.42;;
45328;SDS011;31063;48.356;10.896;2022-07-29T12:21:47;3.50;;;2.47;;
45328;SDS011;31063;48.356;10.896;2022-07-29T12:24:14;4.10;;;2.45;;
45328;SDS011;31063;48.356;10.896;2022-07-29T12:29:16;4.78;;;2.30;;
45328;SDS011;31063;48.356;10.896;2022-07-29T12:31:42;4.68;;;2.80;;
45328;SDS011;31063;48.356;10.896;2022-07-29T12:34:09;5.57;;;2.50;;
45328;SDS011;31063;48.356;10.896;2022-07-29T12:36:36;6.07;;;2.60;;
45328;SDS011;31063;48.356;10.896;2022-07-29T12:39:02;7.25;;;2.70;;
45328;SDS011;31063;48.356;10.896;2022-07-29T12:41:29;2.67;;;2.20;;
45328;SDS011;31063;48.356;10.896;2022-07-29T12:43:55;7.43;;;2.30;;
45328;SDS011;31063;48.356;10.896;2022-07-29T12:46:21;5.68;;;2.35;;
45328;SDS011;31063;48.356;10.896;2022-07-29T12:48:50;7.00;;;2.50;;
45328;SDS011;31063;48.356;10.896;2022-07-29T12:51:33;4.22;;;2.00;;
45328;SDS011;31063;48.356;10.896;2022-07-29T12:54:11;6.15;;;2.50;;
45328;SDS011;31063;48.356;10.896;2022-07-29T12:56:38;4.63;;;2.08;;
45328;SDS011;31063;48.356;10.896;2022-07-29T12:59:13;5.15;;;2.13;;
45328;SDS011;31063;48.356;10.896;2022-07-29T13:01:44;3.97;;;2.20;;
45328;SDS011;31063;48.356;10.896;2022-07-29T13:04:23;4.35;;;2.20;;
45328;SDS011;31063;48.356;10.896;2022-07-29T13:07:00;4.03;;;1.95;;
45328;SDS011;31063;48.356;10.896;2022-07-29T13:09:49;2.78;;;1.88;;
45328;SDS011;31063;48.356;10.896;2022-07-29T13:12:13;4.32;;;1.80;;
45328;SDS011;31063;48.356;10.896;2022-07-29T13:14:43;3.78;;;1.95;;
45328;SDS011;31063;48.356;10.896;2022-07-29T13:17:20;3.25;;;2.15;;
45328;SDS011;31063;48.356;10.896;2022-07-29T13:19:53;3.28;;;2.00;;
45328;SDS011;31063;48.356;10.896;2022-07-29T13:22:31;4.45;;;2.25;;
45328;SDS011;31063;48.356;10.896;2022-07-29T13:24:58;5.20;;;2.10;;
45328;SDS011;31063;48.356;10.896;2022-07-29T13:27:28;4.53;;;2.00;;
45328;SDS011;31063;48.356;10.896;2022-07-29T13:29:57;4.35;;;2.30;;
45328;SDS011;31063;48.356;10.896;2022-07-29T13:32:25;6.43;;;1.98;;
45328;SDS011;31063;48.356;10.896;2022-07-29T13:34:52;3.92;;;2.13;;
45328;SDS011;31063;48.356;10.896;2022-07-29T13:39:44;2.33;;;1.92;;
45328;SDS011;31063;48.356;10.896;2022-07-29T13:42:10;3.13;;;2.40;;
45328;SDS011;31063;48.356;10.896;2022-07-29T13:44:38;5.28;;;2.05;;
45328;SDS011;31063;48.356;10.896;2022-07-29T13:47:07;3.53;;;1.88;;
45328;SDS011;31063;48.356;10.896;2022-07-29T13:49:33;4.93;;;2.20;;
45328;SDS011;31063;48.356;10.896;2022-07-29T13:51:59;3.83;;;2.30;;
45328;SDS011;31063;48.356;10.896;2022-07-29T13:54:24;4.05;;;1.88;;
45328;SDS011;31063;48.356;10.896;2022-07-29T13:56:50;4.90;;;2.50;;
45328;SDS011;31063;48.356;10.896;2022-07-29T13:59:16;2.88;;;2.03;;
45328;SDS011;31063;48.356;10.896;2022-07-29T14:01:42;3.50;;;2.22;;
45328;SDS011;31063;48.356;10.896;2022-07-29T14:04:08;4.80;;;2.30;;
45328;SDS011;31063;48.356;10.896;2022-07-29T14:06:34;2.63;;;2.08;;
45328;SDS011;31063;48.356;10.896;2022-07-29T14:09:00;2.63;;;1.83;;
45328;SDS011;31063;48.356;10.896;2022-07-29T14:11:26;6.10;;;2.05;;
45328;SDS011;31063;48.356;10.896;2022-07-29T14:13:52;6.13;;;2.10;;
45328;SDS011;31063;48.356;10.896;2022-07-29T14:16:17;2.38;;;2.15;;
45328;SDS011;31063;48.356;10.896;2022-07-29T14:18:43;4.05;;;2.20;;
45328;SDS011;31063;48.356;10.896;2022-07-29T14:21:09;2.95;;;2.10;;
45328;SDS011;31063;48.356;10.896;2022-07-29T14:23:34;7.57;;;2.35;;
45328;SDS011;31063;48.356;10.896;2022-07-29T14:26:01;4.80;;;2.05;;
45328;SDS011;31063;48.356;10.896;2022-07-29T14:28:26;2.40;;;2.20;;
45328;SDS011;31063;48.356;10.896;2022-07-29T14:30:52;2.30;;;1.80;;
45328;SDS011;31063;48.356;10.896;2022-07-29T14:33:18;3.87;;;1.97;;
45328;SDS011;31063;48.356;10.896;2022-07-29T14:35:44;2.70;;;2.28;;
45328;SDS011;31063;48.356;10.896;2022-07-29T14:38:09;2.40;;;1.70;;
45328;SDS011;31063;48.356;10.896;2022-07-29T14:40:35;4.35;;;1.98;;
45328;SDS011;31063;48.356;10.896;2022-07-29T14:43:01;2.20;;;1.70;;
45328;SDS011;31063;48.356;10.896;2022-07-29T14:47:53;5.15;;;1.92;;
45328;SDS011;31063;48.356;10.896;2022-07-29T14:50:19;4.72;;;2.10;;
45328;SDS011;31063;48.356;10.896;2022-07-29T14:52:44;3.33;;;2.30;;
45328;SDS011;31063;48.356;10.896;2022-07-29T14:55:10;7.47;;;2.35;;
45328;SDS011;31063;48.356;10.896;2022-07-29T14:57:36;2.88;;;2.30;;
45328;SDS011;31063;48.356;10.896;2022-07-29T15:00:03;3.17;;;2.08;;
45328;SDS011;31063;48.356;10.896;2022-07-29T15:02:31;4.50;;;2.15;;
45328;SDS011;31063;48.356;10.896;2022-07-29T15:04:57;3.30;;;2.20;;
45328;SDS011;31063;48.356;10.896;2022-07-29T15:07:23;3.17;;;2.30;;
45328;SDS011;31063;48.356;10.896;2022-07-29T15:09:48;7.82;;;2.47;;
45328;SDS011;31063;48.356;10.896;2022-07-29T15:12:14;5.18;;;2.20;;
45328;SDS011;31063;48.356;10.896;2022-07-29T15:14:40;4.63;;;2.40;;
45328;SDS011;31063;48.356;10.896;2022-07-29T15:17:06;2.40;;;2.00;;
45328;SDS011;31063;48.356;10.896;2022-07-29T15:19:31;6.10;;;2.50;;
45328;SDS011;31063;48.356;10.896;2022-07-29T15:21:57;2.78;;;2.40;;
45328;SDS011;31063;48.356;10.896;2022-07-29T15:24:23;4.85;;;2.63;;
45328;SDS011;31063;48.356;10.896;2022-07-29T15:26:49;4.90;;;2.40;;
45328;SDS011;31063;48.356;10.896;2022-07-29T15:29:14;4.72;;;2.38;;
45328;SDS011;31063;48.356;10.896;2022-07-29T15:31:40;3.80;;;2.30;;
45328;SDS011;31063;48.356;10.896;2022-07-29T15:34:06;4.93;;;2.40;;
45328;SDS011;31063;48.356;10.896;2022-07-29T15:36:31;5.07;;;2.47;;
45328;SDS011;31063;48.356;10.896;2022-07-29T15:38:57;4.15;;;2.38;;
45328;SDS011;31063;48.356;10.896;2022-07-29T15:41:23;6.82;;;3.00;;
45328;SDS011;31063;48.356;10.896;2022-07-29T15:43:49;4.93;;;2.50;;
45328;SDS011;31063;48.356;10.896;2022-07-29T15:46:16;3.70;;;2.63;;
45328;SDS011;31063;48.356;10.896;2022-07-29T15:49:03;4.45;;;2.63;;
45328;SDS011;31063;48.356;10.896;2022-07-29T15:51:31;5.28;;;2.60;;
45328;SDS011;31063;48.356;10.896;2022-07-29T15:56:22;6.47;;;2.97;;
45328;SDS011;31063;48.356;10.896;2022-07-29T15:58:48;3.95;;;3.05;;
45328;SDS011;31063;48.356;10.896;2022-07-29T16:01:15;4.18;;;3.15;;